Terminal Aerodrome Forecast
Issued by NWS

Home | Current Version | Previous Version | Graphics & Text | Print | Product List | Glossary On
Versions: 1 2 3 4 5 6 7 8 9 10 11 12 13 14 15 16 17 18 19 20 21
000
FTUS43 KICT 141140
TAFCNU
TAF
KCNU 141140Z 1412/1512 10007KT P6SM -SN SCT025 OVC035
      TEMPO 1412/1416 3SM -SN OVC025
     FM141600 18013KT P6SM OVC050
     FM142000 19007KT P6SM SCT040=

USA.gov is the U.S. government's official web portal to all federal, state and local government web resources and services.